This is the latest recevied weather packets stored in our database for station/object KD9ZDW. If no packets are shown the sender has not sent any weather packets the latest 1 day(s).
| Time | Temp. | Humidity | Pressure | Rain* | Wind** | Luminosity | Snow |
|---|---|---|---|---|---|---|---|
| 1778074253 | 8.89° C | 54% | 1014.8 hPa | 0 mm | - | 329 W/m² | - |
| 1778072738 | 8.89° C | 62% | 1014.5 hPa | 0 mm | - | 190 W/m² | - |
| 1778071831 | 8.33° C | 66% | 1014.5 hPa | 0 mm | - | 83 W/m² | - |
| 1778071226 | 7.78° C | 73% | 1014.2 hPa | 0 mm | - | 122 W/m² | - |
| 1778070924 | 7.78° C | 75% | 1013.6 hPa | 0 mm | - | 123 W/m² | - |
| 1778070318 | 7.78° C | 75% | 1014.3 hPa | 0 mm | - | 130 W/m² | - |
| 1778069714 | 7.78° C | 80% | 1014.1 hPa | 0 mm | - | 151 W/m² | - |
| 1778069108 | 6.67° C | 93% | 1013.9 hPa | 0 mm | - | 109 W/m² | - |
| 1778068201 | 6.67° C | 96% | 1013.5 hPa | 0 mm | - | 82 W/m² | - |
| 1778067596 | 7.22° C | 96% | 1013.4 hPa | 0 mm | - | 56 W/m² | - |
| 1778066990 | 6.67° C | 96% | 1013.1 hPa | 0 mm | - | 41 W/m² | - |
| 1778066083 | 6.67° C | 96% | 1012.9 hPa | 0 mm | - | 15 W/m² | - |
| 1778064870 | 6.67° C | 96% | 1012.4 hPa | 0 mm | - | 7 W/m² | - |
| 1778062146 | 6.67° C | 96% | 1012 hPa | 0 mm | - | 0 W/m² | - |
| 1778060936 | 6.67° C | 95% | 1011.8 hPa | 0 mm | - | 0 W/m² | - |
| 1778060635 | 6.67° C | 95% | 1012.1 hPa | 0 mm | - | 0 W/m² | - |
| 1778060332 | 6.67° C | 95% | 1012.2 hPa | 0 mm | - | 0 W/m² | - |
| 1778060030 | 6.67° C | 95% | 1012 hPa | 0 mm | - | 0 W/m² | - |
| 1778056697 | 6.67° C | 95% | 1011.7 hPa | 0 mm | - | 0 W/m² | - |
| 1778056092 | 6.11° C | 95% | 1011.7 hPa | 0 mm | - | 0 W/m² | - |
| 1778055788 | 6.11° C | 95% | 1011.6 hPa | 0 mm | - | 0 W/m² | - |
| 1778055485 | 6.11° C | 95% | 1011.8 hPa | 0 mm | - | 0 W/m² | - |
| 1778054576 | 6.11° C | 95% | 1011.5 hPa | 0 mm | - | 0 W/m² | - |
| 1778054274 | 6.11° C | 95% | 1011.4 hPa | 0 mm | - | 0 W/m² | - |
| 1778053971 | 6.11° C | 95% | 1011.5 hPa | 0 mm | - | 0 W/m² | - |
* Rain latest hour (hover to see other rain measurements)
** Current wind speed in m/s (hover to see current wind gust speed)